Weather History for Plattsmouth, NE

Change the Weather History Date:

Tuesday, February 12, 2013

  Actual Average (KOFF) Record (KOFF)
Temperature  
Mean Temperature 35 °F -  
Max Temperature 48 °F 37 °F 48 °F (1998)
Min Temperature 22 °F 19 °F -4 °F (2012)
Degree Days  
Heating Degree Days 30    
Moisture  
Dew Point 22 °F    
Average Humidity 66    
Maximum Humidity 91    
Minimum Humidity 34    
Precipitation  
Precipitation 0.00 in - - ()
Sea Level Pressure  
Sea Level Pressure 30.01 in    
Wind  
Wind Speed 6 mph (SW)    
Max Wind Speed 15 mph    
Max Gust Speed 20 mph    
Visibility 10 miles    
Events      
Averages and records for this station are not official NWS values.
T = Trace of Precipitation, MM = Missing Value Source: NWS Daily Summary

Daily Weather History Graph

Daily Weather History Graph

Search for Another Location

Airport:

Trip Planner

Search our weather history database for the weather conditions in past years. The results will help you decide how hot, cold, wet, or windy it might be!

Date:

Astronomy

Feb. 12, 2013 Rise Set
Actual Time 7:21 AM CST 5:54 PM CST
Civil Twilight 6:53 AM CST 6:23 PM CST
Nautical Twilight 6:20 AM CST 6:55 PM CST
Astronomical Twilight 5:48 AM CST 7:27 PM CST
Moon 8:17 AM CST (2/12) 8:58 PM CST (2/12)
Length of Visible Light 11h 30m
Length of Day
10h 33m
Waxing Crescent, 7% of the Moon is Illuminated
Feb 12
Waxing Crescent
Feb 17
First Quarter
Feb 25
Full
Mar 4
Last Quarter
Mar 11
New

Hourly Weather History & Observations

Time (CST) Temp. Windchill Dew Point Humidity Pressure Visibility Wind Dir Wind Speed Gust Speed Precip Events Conditions
12:15 AM 26.2 °F - 22.5 °F 86% 30.15 in 10.0 mi Calm Calm - N/A   Clear
12:35 AM 26.2 °F 22.1 °F 22.5 °F 86% 30.15 in 10.0 mi WSW 3.5 mph - N/A   Clear
12:55 AM 26.1 °F 21.9 °F 22.1 °F 85% 30.15 in 10.0 mi WSW 3.5 mph - N/A   Clear
1:15 AM 25.5 °F - 21.7 °F 86% 30.15 in 10.0 mi Calm Calm - N/A   Clear
1:35 AM 25.7 °F 21.5 °F 21.9 °F 86% 30.14 in 10.0 mi WSW 3.5 mph - N/A   Clear
1:55 AM 25.0 °F 20.7 °F 21.2 °F 86% 30.15 in 10.0 mi SW 3.5 mph - N/A   Clear
2:15 AM 24.1 °F 19.7 °F 20.8 °F 87% 30.14 in 10.0 mi SW 3.5 mph - N/A   Clear
2:35 AM 24.4 °F - 21.2 °F 87% 30.13 in 10.0 mi Calm Calm - N/A   Clear
2:55 AM 22.5 °F 16.3 °F 19.4 °F 88% 30.13 in 10.0 mi SSW 4.6 mph - N/A   Clear
3:15 AM 24.1 °F 19.7 °F 21.6 °F 90% 30.11 in 10.0 mi SW 3.5 mph - N/A   Clear
3:35 AM 23.7 °F 19.3 °F 20.5 °F 87% 30.09 in 10.0 mi SW 3.5 mph - N/A   Clear
3:55 AM 23.5 °F - 21.0 °F 90% 30.09 in 10.0 mi Calm Calm - N/A   Clear
4:15 AM 22.5 °F 16.3 °F 20.3 °F 91% 30.09 in 10.0 mi South 4.6 mph - N/A   Clear
4:35 AM 22.6 °F 15.3 °F 20.1 °F 90% 30.10 in 10.0 mi South 5.8 mph - N/A   Clear
4:55 AM 23.0 °F 17.0 °F 20.5 °F 90% 30.10 in 10.0 mi South 4.6 mph - N/A   Clear
5:15 AM 22.5 °F 15.1 °F 20.1 °F 91% 30.10 in 10.0 mi SSW 5.8 mph - N/A   Clear
5:35 AM 23.0 °F 15.8 °F 20.5 °F 90% 30.10 in 10.0 mi South 5.8 mph - N/A   Clear
5:55 AM 24.1 °F 16.0 °F 21.4 °F 89% 30.10 in 10.0 mi South 6.9 mph - N/A   Clear
6:15 AM 24.4 °F 17.5 °F 21.2 °F 87% 30.10 in 10.0 mi South 5.8 mph - N/A   Clear
6:35 AM 24.6 °F 15.8 °F 21.4 °F 87% 30.10 in 10.0 mi South 8.1 mph - N/A   Clear
6:55 AM 23.2 °F 17.2 °F 20.3 °F 89% 30.09 in 10.0 mi South 4.6 mph - N/A   Clear
7:15 AM 24.4 °F 16.5 °F 21.6 °F 89% 30.09 in 10.0 mi SSW 6.9 mph - N/A   Clear
7:35 AM 24.4 °F 20.1 °F 21.2 °F 87% 30.07 in 10.0 mi South 3.5 mph - N/A   Clear
7:55 AM 23.7 °F 16.6 °F 20.8 °F 89% 30.07 in 10.0 mi South 5.8 mph - N/A   Clear
8:15 AM 24.4 °F 17.5 °F 21.9 °F 90% 30.07 in 7.0 mi South 5.8 mph - N/A   Clear
8:35 AM 26.1 °F 16.2 °F 23.0 °F 88% 30.07 in 7.0 mi South 10.4 mph - N/A   Clear
8:55 AM 27.5 °F 15.9 °F 24.4 °F 88% 30.07 in 10.0 mi South 15.0 mph 18.4 mph N/A   Clear
9:15 AM 29.7 °F 20.1 °F 25.0 °F 83% 30.06 in 10.0 mi South 11.5 mph - N/A   Clear
9:35 AM 31.8 °F 22.8 °F 25.3 °F 77% 30.06 in 10.0 mi South 11.5 mph - N/A   Clear
9:55 AM 33.1 °F 23.4 °F 25.7 °F 74% 30.05 in 10.0 mi SSW 13.8 mph - N/A   Clear
10:15 AM 34.9 °F 26.6 °F 26.1 °F 70% 30.05 in 10.0 mi SSW 11.5 mph 18.4 mph N/A   Clear
10:35 AM 36.7 °F 28.9 °F 25.9 °F 65% 30.05 in 10.0 mi SW 11.5 mph - N/A   Clear
10:55 AM 38.5 °F 32.1 °F 26.2 °F 61% 30.05 in 10.0 mi SW 9.2 mph - N/A   Clear
11:15 AM 41.0 °F 34.7 °F 26.2 °F 56% 30.06 in 10.0 mi SW 10.4 mph - N/A   Clear
11:35 AM 42.1 °F 37.1 °F 25.9 °F 53% 30.05 in 10.0 mi SW 8.1 mph - N/A   Clear
11:55 AM 43.9 °F 38.3 °F 25.3 °F 48% 30.05 in 10.0 mi SW 10.4 mph - N/A   Clear
12:15 PM 44.6 °F 38.8 °F 23.9 °F 44% 30.03 in 10.0 mi SW 11.5 mph - N/A   Clear
12:35 PM 45.0 °F 39.7 °F 23.0 °F 42% 30.02 in 10.0 mi WSW 10.4 mph 17.3 mph N/A   Clear
12:55 PM 45.7 °F 39.8 °F 22.8 °F 41% 30.00 in 10.0 mi WSW 12.7 mph - N/A   Clear
1:15 PM 47.3 °F - 22.8 °F 38% 29.98 in 10.0 mi WSW 13.8 mph 17.3 mph N/A   Clear
1:35 PM 46.9 °F - 21.7 °F 37% 29.98 in 10.0 mi WSW 13.8 mph 18.4 mph N/A   Clear
1:55 PM 47.5 °F - 22.6 °F 38% 29.97 in 10.0 mi WSW 15.0 mph 19.6 mph N/A   Clear
2:15 PM 48.2 °F - 21.2 °F 34% 29.95 in 10.0 mi WSW 11.5 mph 18.4 mph N/A   Clear
2:35 PM 48.4 °F - 21.2 °F 34% 29.94 in 10.0 mi WSW 15.0 mph - N/A   Clear
2:55 PM 48.6 °F - 21.0 °F 34% 29.94 in 10.0 mi WSW 13.8 mph - N/A   Clear
3:15 PM 48.6 °F - 21.6 °F 35% 29.93 in 10.0 mi West 12.7 mph - N/A   Clear
3:35 PM 48.4 °F - 21.9 °F 35% 29.93 in 10.0 mi West 10.4 mph - N/A   Clear
3:55 PM 48.0 °F - 21.9 °F 36% 29.92 in 10.0 mi West 10.4 mph - N/A   Clear
4:15 PM 47.3 °F - 21.7 °F 36% 29.92 in 10.0 mi West 6.9 mph - N/A   Clear
4:35 PM 46.6 °F - 23.2 °F 40% 29.91 in 10.0 mi WSW 8.1 mph - N/A   Clear
4:55 PM 45.5 °F 42.5 °F 23.9 °F 43% 29.91 in 10.0 mi WSW 5.8 mph - N/A   Clear
5:15 PM 44.4 °F 42.0 °F 23.9 °F 44% 29.91 in 10.0 mi WSW 4.6 mph - N/A   Clear
5:35 PM 42.1 °F 38.4 °F 24.4 °F 50% 29.91 in 10.0 mi SW 5.8 mph - N/A   Clear
5:55 PM 41.0 °F 37.1 °F 23.9 °F 51% 29.91 in 10.0 mi WSW 5.8 mph - N/A   Clear
6:15 PM 39.4 °F 36.1 °F 23.7 °F 54% 29.91 in 10.0 mi SW 4.6 mph - N/A   Clear
6:35 PM 39.0 °F 34.0 °F 23.0 °F 53% 29.91 in 10.0 mi SW 6.9 mph - N/A   Clear
6:55 PM 38.8 °F 35.4 °F 22.8 °F 53% 29.91 in 10.0 mi SSW 4.6 mph - N/A   Clear
7:15 PM 38.8 °F 34.6 °F 22.1 °F 51% 29.91 in 10.0 mi SW 5.8 mph - N/A   Clear
7:35 PM 37.6 °F 32.3 °F 22.1 °F 54% 29.90 in 10.0 mi SW 6.9 mph - N/A   Clear
8:15 PM 36.7 °F 31.2 °F 21.2 °F 54% 29.90 in 10.0 mi West 6.9 mph - N/A   Clear
8:35 PM 35.8 °F 30.9 °F 21.6 °F 56% 29.91 in 10.0 mi West 5.8 mph - N/A   Clear
8:55 PM 34.5 °F 27.9 °F 21.6 °F 59% 29.91 in 10.0 mi WNW 8.1 mph - N/A   Clear
9:15 PM 34.2 °F 27.5 °F 21.0 °F 59% 29.91 in 10.0 mi WNW 8.1 mph - N/A   Clear
9:35 PM 34.5 °F 27.3 °F 21.2 °F 58% 29.92 in 10.0 mi NW 9.2 mph - N/A   Clear
9:55 PM 33.6 °F 27.5 °F 21.6 °F 61% 29.92 in 10.0 mi NW 6.9 mph - N/A   Clear
10:15 PM 31.1 °F 25.4 °F 21.7 °F 68% 29.92 in 10.0 mi NW 5.8 mph - N/A   Clear
10:35 PM 30.9 °F 26.2 °F 21.0 °F 67% 29.92 in 10.0 mi WNW 4.6 mph - N/A   Clear
10:55 PM 31.8 °F 27.3 °F 21.0 °F 64% 29.92 in 10.0 mi WNW 4.6 mph - N/A   Clear
11:15 PM 32.0 °F 26.4 °F 21.0 °F 64% 29.91 in 10.0 mi WNW 5.8 mph - N/A   Clear
11:35 PM 31.8 °F 27.3 °F 21.2 °F 65% 29.91 in 10.0 mi West 4.6 mph - N/A   Clear
11:55 PM 32.2 °F 26.7 °F 21.2 °F 64% 29.91 in 10.0 mi West 5.8 mph - N/A   Clear